EZY86JD EGPH-LGIR
Flight info
| Callsign | EZY86JD |
|---|---|
| Flight time | N/A |
| Altitude | 35000 |
| Route | TLA Y96 OTBUN DCT AGPED DCT NATEB DCT EWOKE DCT MOXDE DCT ERDOW DCT ROXAT DCT GODOS DCT SPY DCT DODEN DCT NEGIX DCT DINKU M867 XERUM DCT BAVAX DCT RADIZ DCT GLOMY DCT INLOT/N0433F370 DCT PINDO DCT PIKOS DCT KEA UL607 GIVIS T514 XAVIS |
| Aircraft | A320/M-SDE2E3FGHIJ1RWXYZ/LB1 |
Departure
| Time | 2026-04-26 06:50 |
|---|---|
| Airport | Edinburgh Airport (EGPH) |
Arrival
| Time | N/A |
|---|---|
| Airport | Heraklion International Nikos Kazantzakis Airport (LGIR) |
| Time | Latitude | Longitude | Altitude | Speed | Heading |
|---|---|---|---|---|---|
| 2026-04-26 06:29 | 55.94977 | -3.36231 | 116 ft | 0 kts | 116° |
| 2026-04-26 06:41 | 55.94986 | -3.36266 | 113 ft | 4 kts | 112° |
| 2026-04-26 06:41 | 55.94995 | -3.36311 | 116 ft | 4 kts | 105° |
| 2026-04-26 06:41 | 55.95001 | -3.36358 | 116 ft | 4 kts | 97° |
| 2026-04-26 06:41 | 55.95003 | -3.36405 | 116 ft | 4 kts | 84° |
| 2026-04-26 06:42 | 55.94997 | -3.36448 | 116 ft | 2 kts | 57° |
| 2026-04-26 06:42 | 55.94996 | -3.36451 | 116 ft | 0 kts | 57° |
| 2026-04-26 06:44 | 55.94997 | -3.36448 | 116 ft | 2 kts | 57° |
| 2026-04-26 06:44 | 55.95055 | -3.36395 | 116 ft | 16 kts | 342° |
| 2026-04-26 06:44 | 55.95044 | -3.36545 | 116 ft | 14 kts | 239° |
| 2026-04-26 06:45 | 55.94994 | -3.36695 | 116 ft | 14 kts | 239° |
| 2026-04-26 06:45 | 55.94944 | -3.36846 | 114 ft | 14 kts | 239° |
| 2026-04-26 06:45 | 55.94893 | -3.36999 | 112 ft | 14 kts | 239° |
| 2026-04-26 06:45 | 55.94842 | -3.37150 | 115 ft | 14 kts | 238° |
| 2026-04-26 06:46 | 55.94790 | -3.37300 | 112 ft | 14 kts | 237° |
| 2026-04-26 06:46 | 55.94737 | -3.37447 | 112 ft | 14 kts | 237° |
| 2026-04-26 06:46 | 55.94685 | -3.37595 | 114 ft | 14 kts | 240° |
| 2026-04-26 06:46 | 55.94638 | -3.37744 | 114 ft | 13 kts | 237° |
| 2026-04-26 06:47 | 55.94595 | -3.37869 | 116 ft | 11 kts | 238° |
| 2026-04-26 06:47 | 55.94604 | -3.37960 | 116 ft | 8 kts | 326° |
| 2026-04-26 06:47 | 55.94645 | -3.38008 | 113 ft | 7 kts | 327° |
| 2026-04-26 06:47 | 55.94683 | -3.38051 | 113 ft | 7 kts | 327° |
| 2026-04-26 06:48 | 55.94717 | -3.38071 | 114 ft | 4 kts | 1° |
| 2026-04-26 06:48 | 55.94729 | -3.38051 | 114 ft | 2 kts | 66° |
| 2026-04-26 06:49 | 55.94808 | -3.37825 | 113 ft | 60 kts | 57° |
| 2026-04-26 06:49 | 55.95158 | -3.36774 | 112 ft | 134 kts | 58° |
| 2026-04-26 06:49 | 55.95754 | -3.35112 | 355 ft | 169 kts | 57° |
| 2026-04-26 06:50 | 55.96442 | -3.33451 | 1192 ft | 168 kts | 43° |
| 2026-04-26 06:50 | 55.97408 | -3.32200 | 1862 ft | 174 kts | 34° |
| 2026-04-26 06:50 | 55.98392 | -3.30898 | 2384 ft | 177 kts | 40° |
| 2026-04-26 06:50 | 55.99308 | -3.29421 | 2948 ft | 177 kts | 46° |
| 2026-04-26 06:51 | 56.00154 | -3.27848 | 3561 ft | 177 kts | 47° |
| 2026-04-26 06:51 | 56.02147 | -3.24461 | 4022 ft | 220 kts | 44° |
| 2026-04-26 06:51 | 56.03336 | -3.22504 | 4308 ft | 244 kts | 43° |
| 2026-04-26 06:52 | 56.04576 | -3.20247 | 4626 ft | 265 kts | 58° |
| 2026-04-26 06:52 | 56.05151 | -3.17113 | 5212 ft | 272 kts | 91° |
| 2026-04-26 06:52 | 56.04922 | -3.13727 | 5817 ft | 278 kts | 100° |
| 2026-04-26 06:52 | 56.04474 | -3.10349 | 6414 ft | 281 kts | 114° |
| 2026-04-26 06:53 | 56.03437 | -3.07460 | 7118 ft | 282 kts | 136° |
| 2026-04-26 06:53 | 56.01848 | -3.05438 | 7822 ft | 282 kts | 159° |
| 2026-04-26 06:53 | 55.99944 | -3.04690 | 8507 ft | 282 kts | 183° |
| 2026-04-26 06:53 | 55.98026 | -3.05343 | 9185 ft | 283 kts | 201° |
| 2026-04-26 06:54 | 55.96161 | -3.06522 | 9890 ft | 286 kts | 202° |
| 2026-04-26 06:54 | 55.94282 | -3.07723 | 10549 ft | 292 kts | 202° |
| 2026-04-26 06:54 | 55.92234 | -3.08635 | 10701 ft | 318 kts | 185° |
| 2026-04-26 06:54 | 55.89958 | -3.08356 | 11040 ft | 334 kts | 176° |
| 2026-04-26 06:55 | 55.87636 | -3.07892 | 11663 ft | 338 kts | 176° |
| 2026-04-26 06:55 | 55.85293 | -3.07406 | 12348 ft | 340 kts | 176° |
| 2026-04-26 06:55 | 55.82935 | -3.06917 | 13003 ft | 342 kts | 176° |
| 2026-04-26 06:55 | 55.80558 | -3.06431 | 13610 ft | 345 kts | 176° |
| 2026-04-26 06:56 | 55.78161 | -3.05948 | 14189 ft | 349 kts | 176° |
| 2026-04-26 06:56 | 55.75735 | -3.05467 | 14765 ft | 352 kts | 176° |
| 2026-04-26 06:56 | 55.73282 | -3.04987 | 15329 ft | 356 kts | 176° |
| 2026-04-26 06:56 | 55.70812 | -3.04504 | 15876 ft | 359 kts | 176° |
| 2026-04-26 06:57 | 55.68325 | -3.04015 | 16420 ft | 361 kts | 176° |
| 2026-04-26 06:57 | 55.65811 | -3.03516 | 16947 ft | 365 kts | 176° |
| 2026-04-26 06:57 | 55.63280 | -3.03015 | 17457 ft | 368 kts | 176° |
| 2026-04-26 06:57 | 55.60722 | -3.02509 | 17949 ft | 371 kts | 176° |
| 2026-04-26 06:58 | 55.58180 | -3.02003 | 18428 ft | 374 kts | 176° |
| 2026-04-26 06:58 | 55.55579 | -3.01486 | 18917 ft | 377 kts | 176° |
| 2026-04-26 06:58 | 55.52963 | -3.00971 | 19403 ft | 379 kts | 176° |
| 2026-04-26 06:58 | 55.50351 | -3.00168 | 19858 ft | 385 kts | 166° |
| 2026-04-26 06:59 | 55.47853 | -2.98386 | 20300 ft | 392 kts | 153° |
| 2026-04-26 06:59 | 55.45605 | -2.95614 | 20728 ft | 398 kts | 140° |
| 2026-04-26 06:59 | 55.43745 | -2.91958 | 21142 ft | 405 kts | 127° |
| 2026-04-26 06:59 | 55.42306 | -2.87666 | 21551 ft | 409 kts | 121° |
| 2026-04-26 07:00 | 55.40921 | -2.83282 | 21953 ft | 411 kts | 121° |
| 2026-04-26 07:00 | 55.39518 | -2.78874 | 22345 ft | 414 kts | 121° |